Time;durP1;ratioP1;P1;durP2;ratioP2;P2;SDS_P1;SDS_P2;PMS_P1;PMS_P2;Temp;Humidity;BMP_temperature;BMP_pressure;BME280_temperature;BME280_humidity;BME280_pressure;Samples;Min_cycle;Max_cycle;Signal;HPM_P1;HPM_P2
2021/04/24 00:00:11;;;;;;;12.70;7.00;;;6.80;99.90;;;;;;5044958;28;20181;-66
2021/04/24 00:02:40;;;;;;;13.43;7.73;;;6.90;99.90;;;;;;5042228;28;20189;-66
2021/04/24 00:05:10;;;;;;;12.10;6.83;;;6.90;99.90;;;;;;5041542;28;20227;-66
2021/04/24 00:07:37;;;;;;;14.23;7.20;;;6.90;99.90;;;;;;5047676;28;20202;-66
2021/04/24 00:10:06;;;;;;;12.63;6.90;;;6.90;99.90;;;;;;5034697;28;20189;-66
2021/04/24 00:12:34;;;;;;;14.60;6.77;;;6.90;99.90;;;;;;5041861;28;20194;-66
2021/04/24 00:15:03;;;;;;;13.93;7.60;;;6.90;99.90;;;;;;5041097;28;20248;-66
2021/04/24 00:17:30;;;;;;;18.97;7.57;;;6.90;99.90;;;;;;5042453;28;20430;-66
2021/04/24 00:19:58;;;;;;;12.60;7.00;;;6.80;99.90;;;;;;5037802;28;20413;-66
2021/04/24 00:22:26;;;;;;;12.97;7.20;;;6.80;99.90;;;;;;5039132;28;20223;-66
2021/04/24 00:24:53;;;;;;;19.70;8.53;;;6.80;99.90;;;;;;5043185;28;20243;-66
2021/04/24 00:27:21;;;;;;;14.53;7.00;;;6.80;99.90;;;;;;5043106;28;20186;-66
2021/04/24 00:29:49;;;;;;;13.13;7.50;;;6.80;99.90;;;;;;5043085;28;20189;-66
2021/04/24 00:32:17;;;;;;;14.03;6.73;;;6.70;99.90;;;;;;5040868;28;20461;-66
2021/04/24 00:34:44;;;;;;;13.03;7.20;;;6.70;99.90;;;;;;5054536;28;20189;-66
2021/04/24 00:37:12;;;;;;;14.07;7.50;;;6.70;99.90;;;;;;5060296;28;20188;-66
2021/04/24 00:39:39;;;;;;;12.93;7.60;;;6.60;99.90;;;;;;5040058;28;20223;-67
2021/04/24 00:42:07;;;;;;;15.30;8.07;;;6.60;99.90;;;;;;5041774;28;20413;-66
2021/04/24 00:44:34;;;;;;;16.60;7.27;;;6.50;99.90;;;;;;5037372;28;20232;-66
2021/04/24 00:47:03;;;;;;;15.20;7.83;;;6.50;99.90;;;;;;5043369;28;20224;-66
2021/04/24 00:49:31;;;;;;;14.60;7.47;;;6.50;99.90;;;;;;5038514;28;20257;-66
2021/04/24 00:51:58;;;;;;;16.33;8.37;;;6.50;99.90;;;;;;5036048;28;20181;-66
2021/04/24 00:54:25;;;;;;;15.77;8.13;;;6.50;99.90;;;;;;5039967;28;20266;-66
2021/04/24 00:56:53;;;;;;;14.93;7.63;;;6.50;99.90;;;;;;5041236;28;20182;-66
2021/04/24 00:59:20;;;;;;;19.80;8.30;;;6.40;99.90;;;;;;5038227;28;20349;-66
2021/04/24 01:01:48;;;;;;;16.90;8.17;;;6.40;99.90;;;;;;5034603;28;20314;-66
2021/04/24 01:04:16;;;;;;;17.90;8.00;;;6.40;99.90;;;;;;5041073;28;20198;-66
2021/04/24 01:07:21;;;;;;;14.90;8.07;;;6.40;99.90;;;;;;5039765;28;20213;-66
2021/04/24 01:09:49;;;;;;;19.03;8.47;;;6.30;99.90;;;;;;5039419;28;20480;-66
2021/04/24 01:12:16;;;;;;;17.93;7.73;;;6.30;99.90;;;;;;5038190;28;20193;-66
2021/04/24 01:14:43;;;;;;;19.47;8.47;;;6.20;99.90;;;;;;5041073;28;20200;-66
2021/04/24 01:17:11;;;;;;;17.33;8.07;;;6.20;99.90;;;;;;5043029;28;20248;-66
2021/04/24 01:19:39;;;;;;;17.67;8.37;;;6.20;99.90;;;;;;5044104;28;20213;-66
2021/04/24 01:22:09;;;;;;;17.60;7.40;;;6.10;99.90;;;;;;5040445;28;20186;-66
2021/04/24 01:24:38;;;;;;;18.90;8.40;;;6.10;99.90;;;;;;5038516;28;20178;-66
2021/04/24 01:27:07;;;;;;;16.10;9.27;;;6.00;99.90;;;;;;5042695;28;20373;-66
2021/04/24 01:29:37;;;;;;;18.67;8.87;;;6.00;99.90;;;;;;5040559;28;20228;-66
2021/04/24 01:32:05;;;;;;;18.13;8.67;;;6.00;99.90;;;;;;5040616;28;20190;-66
2021/04/24 01:34:33;;;;;;;14.10;8.03;;;5.90;99.90;;;;;;5040490;28;20204;-66
2021/04/24 01:37:01;;;;;;;16.40;8.23;;;5.90;99.90;;;;;;5041472;28;20330;-66
2021/04/24 01:39:31;;;;;;;15.90;8.67;;;5.90;99.90;;;;;;5043316;28;20268;-66
2021/04/24 01:41:58;;;;;;;15.10;7.93;;;5.90;99.90;;;;;;5034435;28;20189;-66
2021/04/24 01:44:26;;;;;;;21.00;9.40;;;5.80;99.90;;;;;;5041522;28;20181;-66
2021/04/24 01:46:53;;;;;;;16.93;8.67;;;5.80;99.90;;;;;;5056415;28;20196;-66
2021/04/24 01:49:21;;;;;;;22.77;9.07;;;5.70;99.90;;;;;;5042254;28;20233;-66
2021/04/24 01:51:48;;;;;;;16.80;8.50;;;5.70;99.90;;;;;;5041779;28;20213;-66
2021/04/24 01:54:16;;;;;;;16.47;9.17;;;5.70;99.90;;;;;;5040548;28;20204;-66
2021/04/24 01:56:46;;;;;;;19.27;9.27;;;5.70;99.90;;;;;;5041788;28;20260;-66
2021/04/24 01:59:14;;;;;;;19.20;9.17;;;5.70;99.90;;;;;;5043588;28;20232;-66
2021/04/24 02:01:46;;;;;;;15.03;8.47;;;5.70;99.90;;;;;;5036918;28;20194;-66
2021/04/24 02:04:13;;;;;;;22.80;9.07;;;5.70;99.90;;;;;;5038241;28;20426;-66
2021/04/24 02:06:41;;;;;;;22.63;9.53;;;5.60;99.90;;;;;;5034208;28;20236;-66
2021/04/24 02:09:27;;;;;;;18.60;9.37;;;5.60;99.90;;;;;;5036264;28;20361;-66
2021/04/24 02:12:05;;;;;;;22.30;9.30;;;5.60;99.90;;;;;;5052335;28;20185;-66
2021/04/24 02:14:37;;;;;;;16.90;9.73;;;5.60;99.90;;;;;;5053343;28;20192;-66
2021/04/24 02:17:05;;;;;;;21.33;9.90;;;5.50;99.90;;;;;;5039924;28;20218;-69
2021/04/24 02:19:38;;;;;;;22.53;10.43;;;5.40;99.90;;;;;;5042590;28;20228;-68
2021/04/24 02:22:06;;;;;;;20.23;9.53;;;5.40;99.90;;;;;;5040282;28;20239;-68
2021/04/24 02:24:42;;;;;;;19.03;9.80;;;5.40;99.90;;;;;;5041124;28;20235;-69
2021/04/24 02:27:11;;;;;;;23.37;10.37;;;5.30;99.90;;;;;;5043433;28;20184;-69
2021/04/24 02:29:40;;;;;;;22.97;10.17;;;5.30;99.90;;;;;;5039334;28;20185;-68
2021/04/24 02:32:09;;;;;;;21.20;9.47;;;5.40;99.90;;;;;;5034361;28;20236;-68
2021/04/24 02:34:38;;;;;;;19.93;9.73;;;5.30;99.90;;;;;;5040048;28;20408;-68
2021/04/24 02:37:05;;;;;;;23.17;10.33;;;5.30;99.90;;;;;;5043704;28;20323;-68
2021/04/24 02:39:35;;;;;;;20.70;10.73;;;5.30;99.90;;;;;;5040964;28;20224;-68
2021/04/24 02:42:04;;;;;;;19.07;9.90;;;5.30;99.90;;;;;;5041655;28;20391;-68
2021/04/24 02:44:34;;;;;;;26.20;9.90;;;5.30;99.90;;;;;;5039481;28;20189;-69
2021/04/24 02:47:02;;;;;;;18.20;10.13;;;5.20;99.90;;;;;;5032384;28;20197;-69
2021/04/24 02:49:30;;;;;;;18.80;9.97;;;5.20;99.90;;;;;;5042772;28;20423;-68
2021/04/24 02:51:58;;;;;;;20.13;10.20;;;5.10;99.90;;;;;;5042283;28;20184;-68
2021/04/24 02:54:25;;;;;;;22.17;9.83;;;5.10;99.90;;;;;;5035357;28;20177;-68
2021/04/24 02:56:53;;;;;;;20.77;9.70;;;5.00;99.90;;;;;;5041289;28;20185;-68
2021/04/24 02:59:21;;;;;;;21.13;9.37;;;5.00;99.90;;;;;;5040498;28;20201;-68
2021/04/24 03:01:52;;;;;;;23.83;10.67;;;5.00;99.90;;;;;;5035668;28;20174;-67
2021/04/24 03:04:20;;;;;;;21.60;10.00;;;5.00;99.90;;;;;;5035310;28;20236;-68
2021/04/24 03:07:25;;;;;;;24.40;10.10;;;5.00;99.90;;;;;;5043365;28;20208;-68
2021/04/24 03:10:12;;;;;;;20.03;10.77;;;5.00;99.90;;;;;;5037614;28;20181;-69
2021/04/24 03:12:40;;;;;;;19.33;9.93;;;5.00;99.90;;;;;;5038592;28;20186;-68
2021/04/24 03:15:08;;;;;;;19.27;9.03;;;5.00;99.90;;;;;;5039080;28;20194;-68
2021/04/24 03:17:36;;;;;;;22.23;10.07;;;4.90;99.90;;;;;;5042165;28;20225;-68
2021/04/24 03:20:07;;;;;;;22.27;9.77;;;4.90;99.90;;;;;;5039174;28;20202;-67
2021/04/24 03:22:34;;;;;;;17.07;9.60;;;4.90;99.90;;;;;;5034103;28;20306;-68
2021/04/24 03:25:01;;;;;;;21.13;9.93;;;4.90;99.90;;;;;;5055892;28;20343;-68
2021/04/24 03:27:29;;;;;;;19.27;9.83;;;4.80;99.90;;;;;;5039322;28;20201;-68
2021/04/24 03:29:56;;;;;;;23.83;9.80;;;4.80;99.90;;;;;;5039173;28;20220;-67
2021/04/24 03:32:24;;;;;;;22.83;10.30;;;4.80;99.90;;;;;;5041279;28;20193;-68
2021/04/24 03:34:52;;;;;;;22.10;9.93;;;4.80;99.90;;;;;;5039536;28;20417;-68
2021/04/24 03:37:19;;;;;;;25.83;10.00;;;4.70;99.90;;;;;;5041514;28;20330;-68
2021/04/24 03:39:47;;;;;;;21.33;9.63;;;4.70;99.90;;;;;;5039768;28;20197;-67
2021/04/24 03:42:14;;;;;;;23.33;10.60;;;4.80;99.90;;;;;;5037195;28;20221;-68
2021/04/24 03:44:42;;;;;;;18.57;9.77;;;4.70;99.90;;;;;;5040251;28;20192;-69
2021/04/24 03:47:14;;;;;;;23.60;9.43;;;4.70;99.90;;;;;;5040251;28;20233;-68
2021/04/24 03:49:41;;;;;;;21.57;10.40;;;4.70;99.90;;;;;;5038592;28;20283;-68
2021/04/24 03:52:09;;;;;;;18.93;9.30;;;4.60;99.90;;;;;;5030428;28;20197;-68
2021/04/24 03:54:37;;;;;;;21.33;10.00;;;4.60;99.90;;;;;;5041497;28;20465;-68
2021/04/24 03:57:04;;;;;;;20.77;9.67;;;4.70;99.90;;;;;;5035974;28;20193;-68
2021/04/24 03:59:32;;;;;;;18.57;9.93;;;4.60;99.90;;;;;;5033676;28;20217;-68
2021/04/24 04:01:59;;;;;;;20.10;9.23;;;4.60;99.90;;;;;;5039130;28;20193;-68
2021/04/24 04:04:26;;;;;;;21.47;9.27;;;4.50;99.90;;;;;;5033055;28;20185;-68
2021/04/24 04:06:54;;;;;;;18.07;9.30;;;4.50;99.90;;;;;;5039597;28;20190;-68
2021/04/24 04:09:22;;;;;;;26.47;9.80;;;4.60;99.90;;;;;;5039040;28;20199;-68
2021/04/24 04:11:50;;;;;;;16.47;9.47;;;4.60;99.90;;;;;;5043866;28;20189;-67
2021/04/24 04:14:18;;;;;;;21.37;9.70;;;4.60;99.90;;;;;;5041254;28;20178;-68
2021/04/24 04:16:46;;;;;;;18.33;9.40;;;4.60;99.90;;;;;;5042851;28;20221;-68
2021/04/24 04:19:13;;;;;;;21.37;10.03;;;4.60;99.90;;;;;;5041505;28;20212;-68
2021/04/24 04:21:40;;;;;;;16.70;8.23;;;4.60;99.90;;;;;;5043086;28;20181;-68
2021/04/24 04:24:08;;;;;;;20.13;9.27;;;4.60;99.90;;;;;;5041353;28;20201;-68
2021/04/24 04:26:36;;;;;;;17.37;9.10;;;4.60;99.90;;;;;;5044354;28;20208;-68
2021/04/24 04:29:05;;;;;;;21.33;9.30;;;4.60;99.90;;;;;;5043427;28;20193;-68
2021/04/24 04:31:32;;;;;;;21.33;9.53;;;4.50;99.90;;;;;;5040790;28;20186;-67
2021/04/24 04:34:00;;;;;;;16.17;9.27;;;4.50;99.90;;;;;;5040974;28;20178;-68
2021/04/24 04:36:28;;;;;;;17.37;9.13;;;4.50;99.90;;;;;;5045281;28;20181;-68
2021/04/24 04:38:55;;;;;;;21.13;9.50;;;4.40;99.90;;;;;;5043095;28;20275;-68
2021/04/24 04:41:27;;;;;;;15.83;8.90;;;4.40;99.90;;;;;;5044947;28;21256;-68
2021/04/24 04:43:55;;;;;;;17.50;9.43;;;4.40;99.90;;;;;;5043770;28;20195;-68
2021/04/24 04:46:22;;;;;;;20.10;9.43;;;4.40;99.90;;;;;;5038860;28;20257;-68
2021/04/24 04:48:50;;;;;;;20.57;9.27;;;4.40;99.90;;;;;;5035829;28;20202;-68
2021/04/24 04:51:17;;;;;;;19.43;9.53;;;4.40;99.90;;;;;;5040565;28;20228;-68
2021/04/24 04:53:45;;;;;;;20.73;8.63;;;4.40;99.90;;;;;;5042256;28;20252;-68
2021/04/24 04:56:12;;;;;;;21.60;8.80;;;4.40;99.90;;;;;;5040973;28;20181;-68
2021/04/24 04:58:40;;;;;;;17.53;9.67;;;4.40;99.90;;;;;;5040475;28;20205;-68
2021/04/24 05:01:14;;;;;;;17.77;8.80;;;4.40;99.90;;;;;;5042184;28;20224;-68
2021/04/24 05:03:42;;;;;;;21.50;9.10;;;4.40;99.90;;;;;;5042076;28;20247;-68
2021/04/24 05:06:09;;;;;;;18.20;8.43;;;4.50;99.90;;;;;;5044685;28;20216;-68
2021/04/24 05:08:37;;;;;;;19.33;8.40;;;4.50;99.90;;;;;;5043090;28;20194;-68
2021/04/24 05:11:04;;;;;;;21.13;8.60;;;4.60;99.90;;;;;;5042108;28;20189;-68
2021/04/24 05:13:32;;;;;;;18.30;8.67;;;4.60;99.90;;;;;;5040611;28;20227;-68
2021/04/24 05:15:59;;;;;;;15.30;8.50;;;4.60;99.90;;;;;;5041174;28;20188;-68
2021/04/24 05:18:28;;;;;;;13.10;8.40;;;4.70;99.90;;;;;;5041434;28;20263;-68
2021/04/24 05:20:55;;;;;;;13.30;8.67;;;4.70;99.90;;;;;;5040170;28;20276;-68
2021/04/24 05:23:23;;;;;;;17.93;8.70;;;4.70;99.90;;;;;;5039971;28;20212;-68
2021/04/24 05:25:50;;;;;;;15.67;8.60;;;4.80;99.90;;;;;;5041045;28;20182;-68
2021/04/24 05:28:17;;;;;;;16.23;8.70;;;4.80;99.90;;;;;;5043440;28;20177;-68
2021/04/24 05:30:44;;;;;;;22.43;9.00;;;4.90;99.90;;;;;;5039409;28;20415;-67
2021/04/24 05:33:12;;;;;;;17.97;8.53;;;4.90;99.90;;;;;;5040578;28;20181;-69
2021/04/24 05:35:40;;;;;;;18.20;9.07;;;5.00;99.90;;;;;;5032091;28;20188;-68
2021/04/24 05:38:07;;;;;;;16.03;8.53;;;5.00;99.90;;;;;;5058898;28;20189;-68
2021/04/24 05:40:35;;;;;;;13.50;8.27;;;5.10;99.90;;;;;;5040025;28;20185;-68
2021/04/24 05:43:02;;;;;;;16.50;8.27;;;5.10;99.90;;;;;;5039860;28;20183;-68
2021/04/24 05:45:30;;;;;;;12.73;7.17;;;5.20;99.90;;;;;;5040905;28;20190;-68
2021/04/24 05:47:57;;;;;;;14.47;8.10;;;5.30;99.90;;;;;;5034976;28;20189;-68
2021/04/24 05:50:25;;;;;;;14.03;8.03;;;5.40;99.90;;;;;;5044050;28;20257;-69
2021/04/24 05:52:55;;;;;;;17.50;8.07;;;5.50;99.90;;;;;;5031590;28;20426;-68
2021/04/24 05:55:23;;;;;;;16.77;7.93;;;5.70;99.90;;;;;;5037134;28;20415;-68
2021/04/24 05:57:51;;;;;;;17.13;8.60;;;5.90;99.90;;;;;;5040982;28;20183;-68
2021/04/24 06:00:20;;;;;;;15.87;8.17;;;6.20;99.90;;;;;;5039747;28;20208;-68
2021/04/24 06:02:49;;;;;;;16.77;8.00;;;6.30;99.90;;;;;;5041892;28;20200;-68
2021/04/24 06:05:17;;;;;;;14.87;8.13;;;6.40;99.90;;;;;;5040898;28;20213;-68
2021/04/24 06:07:45;;;;;;;17.13;9.17;;;6.50;99.90;;;;;;5043809;28;20319;-68
2021/04/24 06:10:15;;;;;;;15.60;8.80;;;6.60;99.90;;;;;;5040920;28;20194;-68
2021/04/24 06:12:44;;;;;;;14.63;8.07;;;6.80;99.90;;;;;;5037500;28;20194;-68
2021/04/24 06:15:12;;;;;;;18.13;8.17;;;7.30;99.90;;;;;;5042162;28;20327;-69
2021/04/24 06:17:41;;;;;;;15.50;8.83;;;7.50;99.90;;;;;;5040999;28;20214;-68
2021/04/24 06:20:11;;;;;;;16.67;8.00;;;7.80;99.90;;;;;;5035375;28;20489;-69
2021/04/24 06:22:40;;;;;;;14.00;8.17;;;7.80;99.90;;;;;;5041490;28;20178;-68
2021/04/24 06:25:10;;;;;;;13.43;7.73;;;8.00;99.90;;;;;;5039817;28;20207;-69
2021/04/24 06:27:38;;;;;;;11.50;7.93;;;8.20;99.90;;;;;;5043207;28;20181;-68
2021/04/24 06:30:09;;;;;;;10.13;7.27;;;8.20;99.90;;;;;;5042302;28;20239;-69
2021/04/24 06:32:37;;;;;;;16.40;8.23;;;8.30;99.90;;;;;;5040787;28;20209;-67
2021/04/24 06:35:06;;;;;;;14.70;8.30;;;8.30;99.90;;;;;;5039514;28;20201;-68
2021/04/24 06:37:34;;;;;;;13.50;8.27;;;8.50;99.90;;;;;;5041814;28;20181;-68
2021/04/24 06:40:01;;;;;;;17.13;8.13;;;8.70;99.90;;;;;;5038521;28;20205;-69
2021/04/24 06:42:28;;;;;;;13.27;8.37;;;9.10;99.90;;;;;;5054528;28;20295;-68
2021/04/24 06:44:56;;;;;;;15.13;7.93;;;9.40;99.90;;;;;;5041856;28;20185;-69
2021/04/24 06:47:24;;;;;;;12.43;8.50;;;9.70;99.90;;;;;;5036710;28;20232;-69
2021/04/24 06:49:52;;;;;;;12.43;7.97;;;9.90;99.90;;;;;;5041509;28;20196;-68
2021/04/24 06:52:19;;;;;;;13.90;8.40;;;9.80;99.90;;;;;;5041943;28;20460;-69
2021/04/24 06:54:47;;;;;;;15.50;8.13;;;9.80;99.90;;;;;;5039589;28;20189;-68
2021/04/24 06:57:14;;;;;;;10.70;7.57;;;9.90;99.90;;;;;;5041510;28;20464;-69
2021/04/24 06:59:43;;;;;;;14.27;8.07;;;10.30;99.90;;;;;;5047133;28;20261;-69
2021/04/24 07:02:11;;;;;;;12.23;8.00;;;10.50;99.90;;;;;;5038595;28;20185;-69
2021/04/24 07:04:39;;;;;;;13.10;8.13;;;10.40;99.90;;;;;;5040694;28;20216;-68
2021/04/24 07:07:09;;;;;;;14.13;8.57;;;10.30;99.90;;;;;;5038674;28;20351;-69
2021/04/24 07:09:37;;;;;;;15.20;7.93;;;10.50;99.90;;;;;;5037394;28;20248;-67
2021/04/24 07:12:06;;;;;;;20.17;8.23;;;10.90;99.90;;;;;;5040585;28;20207;-69
2021/04/24 07:14:33;;;;;;;15.87;8.10;;;11.60;99.90;;;;;;5040330;28;20185;-69
2021/04/24 07:17:00;;;;;;;14.43;8.30;;;12.40;99.90;;;;;;5041319;28;20224;-69
2021/04/24 07:19:29;;;;;;;13.30;7.50;;;13.10;99.90;;;;;;5042684;28;20232;-69
2021/04/24 07:21:56;;;;;;;11.20;7.27;;;13.60;99.90;;;;;;5039683;28;20185;-67
2021/04/24 07:24:24;;;;;;;11.17;7.13;;;14.00;99.90;;;;;;5040593;28;20177;-69
2021/04/24 07:26:51;;;;;;;12.50;7.77;;;14.00;99.90;;;;;;5036060;28;20235;-69
2021/04/24 07:29:18;;;;;;;12.27;7.03;;;13.90;99.90;;;;;;5042512;28;20186;-69
2021/04/24 07:31:47;;;;;;;10.73;7.27;;;13.90;99.90;;;;;;5039426;28;21317;-69
2021/04/24 07:34:14;;;;;;;10.03;6.80;;;14.10;99.90;;;;;;5043640;28;20216;-69
2021/04/24 07:36:42;;;;;;;11.63;7.03;;;14.60;99.90;;;;;;5059872;28;20181;-69
2021/04/24 07:39:10;;;;;;;11.10;7.07;;;15.00;99.90;;;;;;5045785;28;20465;-69
2021/04/24 07:41:42;;;;;;;10.70;6.80;;;15.10;99.90;;;;;;5039132;28;20402;-69
2021/04/24 07:44:10;;;;;;;12.00;6.70;;;15.20;99.90;;;;;;5040594;28;20178;-68
2021/04/24 07:46:42;;;;;;;9.13;6.63;;;15.00;99.90;;;;;;5041320;28;20249;-69
2021/04/24 07:49:09;;;;;;;8.60;5.77;;;14.80;99.90;;;;;;5042589;28;20184;-69
2021/04/24 07:51:37;;;;;;;9.43;6.30;;;14.70;99.90;;;;;;5044944;28;20281;-70
2021/04/24 07:54:05;;;;;;;10.37;6.20;;;14.90;99.90;;;;;;5042072;28;20242;-67
2021/04/24 07:56:33;;;;;;;10.97;6.97;;;15.80;99.90;;;;;;5041897;28;20236;-67
2021/04/24 07:59:00;;;;;;;8.13;5.70;;;16.40;99.90;;;;;;5033363;28;20197;-67
2021/04/24 08:01:27;;;;;;;9.30;5.90;;;16.90;99.90;;;;;;5045742;28;20181;-68
2021/04/24 08:03:55;;;;;;;9.33;6.07;;;16.70;99.90;;;;;;5044372;28;20316;-67
2021/04/24 08:06:22;;;;;;;8.93;6.20;;;16.70;99.50;;;;;;5041906;28;20178;-69
2021/04/24 08:08:50;;;;;;;8.60;6.03;;;16.30;99.90;;;;;;5037263;28;20441;-67
2021/04/24 08:11:19;;;;;;;6.67;5.70;;;16.40;99.90;;;;;;5057029;28;20197;-69
2021/04/24 08:13:46;;;;;;;6.53;5.70;;;16.40;99.30;;;;;;5044276;28;20235;-67
2021/04/24 08:16:14;;;;;;;8.67;5.67;;;16.60;98.90;;;;;;5042289;28;20197;-69
2021/04/24 08:18:42;;;;;;;10.97;5.83;;;16.80;98.10;;;;;;5042691;28;20189;-67
2021/04/24 08:21:09;;;;;;;11.43;6.17;;;16.40;98.20;;;;;;5037888;28;20338;-69
2021/04/24 08:23:36;;;;;;;7.53;5.90;;;16.00;98.60;;;;;;5046119;28;20185;-69
2021/04/24 08:26:04;;;;;;;11.37;5.93;;;16.00;99.10;;;;;;5043594;28;20185;-69
2021/04/24 08:28:32;;;;;;;10.43;5.83;;;16.70;98.90;;;;;;5037703;28;20194;-68
2021/04/24 08:31:00;;;;;;;8.70;5.47;;;17.50;99.20;;;;;;5040920;28;20181;-68
2021/04/24 08:33:27;;;;;;;8.53;6.23;;;18.00;96.80;;;;;;5042755;28;20177;-68
2021/04/24 08:35:55;;;;;;;12.07;5.80;;;18.00;96.20;;;;;;5042421;28;20186;-68
2021/04/24 08:38:22;;;;;;;5.67;5.17;;;18.30;96.20;;;;;;5044509;28;20204;-68
2021/04/24 08:40:50;;;;;;;7.67;5.30;;;18.70;97.20;;;;;;5038197;28;20212;-68
2021/04/24 08:43:18;;;;;;;9.10;5.80;;;18.70;95.10;;;;;;5041293;28;20205;-68
2021/04/24 08:45:47;;;;;;;5.87;5.30;;;18.20;95.40;;;;;;5039325;28;20189;-69
2021/04/24 08:48:19;;;;;;;6.33;5.07;;;18.00;95.10;;;;;;5031252;28;20186;-70
2021/04/24 08:50:47;;;;;;;8.07;5.37;;;17.60;96.20;;;;;;5039233;28;20224;-69
2021/04/24 08:53:18;;;;;;;8.77;5.00;;;18.10;95.20;;;;;;5036354;28;20194;-68
2021/04/24 08:55:45;;;;;;;5.73;5.17;;;18.50;95.70;;;;;;5037029;28;20275;-69
2021/04/24 08:58:13;;;;;;;6.60;5.10;;;18.00;94.10;;;;;;5038839;28;20299;-69
2021/04/24 09:00:43;;;;;;;7.63;5.57;;;18.30;95.10;;;;;;5054336;28;20263;-68
2021/04/24 09:03:13;;;;;;;6.93;5.03;;;18.60;95.70;;;;;;5034989;28;20177;-68
2021/04/24 09:05:41;;;;;;;10.40;5.50;;;19.50;94.70;;;;;;5036171;28;20198;-68
2021/04/24 09:08:10;;;;;;;6.53;4.93;;;19.50;93.90;;;;;;5034867;28;20209;-68
2021/04/24 09:10:42;;;;;;;11.60;4.80;;;19.90;93.30;;;;;;5043840;28;20709;-68
2021/04/24 09:13:11;;;;;;;7.97;4.70;;;19.90;93.60;;;;;;5042891;28;20181;-68
2021/04/24 09:15:38;;;;;;;9.20;5.00;;;19.70;92.10;;;;;;5055426;28;20223;-68
2021/04/24 09:18:07;;;;;;;6.20;5.00;;;19.50;92.20;;;;;;5038645;28;20284;-68
2021/04/24 09:20:46;;;;;;;5.07;4.43;;;19.60;92.10;;;;;;5041143;28;20462;-67
2021/04/24 09:23:15;;;;;;;8.40;4.30;;;19.60;92.20;;;;;;5038960;28;20353;-68
2021/04/24 09:25:45;;;;;;;5.67;4.37;;;19.70;93.50;;;;;;5041682;28;20197;-68
2021/04/24 09:28:24;;;;;;;5.00;4.50;;;20.20;93.60;;;;;;5037920;28;20202;-67
2021/04/24 09:30:52;;;;;;;11.00;4.80;;;20.30;91.70;;;;;;5040009;28;20201;-69
2021/04/24 09:33:19;;;;;;;10.77;4.63;;;19.00;92.30;;;;;;5041771;28;20201;-67
2021/04/24 09:35:53;;;;;;;5.50;4.30;;;19.00;92.10;;;;;;5036077;28;20247;-68
2021/04/24 09:38:23;;;;;;;9.57;3.90;;;20.10;92.80;;;;;;5036767;28;20190;-67
2021/04/24 09:41:15;;;;;;;4.07;3.50;;;20.20;91.00;;;;;;5034094;28;20212;-69
2021/04/24 09:43:53;;;;;;;4.03;3.70;;;20.10;91.20;;;;;;5030507;28;20236;-68
2021/04/24 09:46:21;;;;;;;6.43;4.13;;;20.20;90.80;;;;;;5031242;28;20177;-69
2021/04/24 09:48:48;;;;;;;4.83;4.40;;;19.80;90.80;;;;;;5033583;28;20232;-68
2021/04/24 09:51:18;;;;;;;3.97;3.67;;;20.00;91.00;;;;;;5038737;28;20204;-68
2021/04/24 09:53:55;;;;;;;5.87;3.80;;;20.00;91.70;;;;;;5036334;28;20200;-66
2021/04/24 09:56:25;;;;;;;5.43;4.03;;;20.60;90.40;;;;;;5033661;28;20229;-68
2021/04/24 09:59:00;;;;;;;5.53;3.97;;;20.50;89.80;;;;;;5038884;28;20240;-67
2021/04/24 10:01:31;;;;;;;6.43;4.43;;;20.30;90.70;;;;;;5037789;28;20194;-67
2021/04/24 10:03:59;;;;;;;11.40;4.40;;;20.50;90.80;;;;;;5036632;28;20174;-68
2021/04/24 10:06:32;;;;;;;4.30;3.90;;;20.40;90.50;;;;;;5025208;28;20218;-70
2021/04/24 10:09:19;;;;;;;4.27;3.73;;;20.90;90.70;;;;;;5028324;28;20185;-68
2021/04/24 10:12:09;;;;;;;7.83;4.10;;;21.30;90.20;;;;;;5039452;28;20252;-66
2021/04/24 10:14:39;;;;;;;4.83;3.90;;;21.30;88.90;;;;;;5041819;28;20193;-67
2021/04/24 10:17:08;;;;;;;5.60;4.13;;;21.00;87.70;;;;;;5039419;28;20209;-68
2021/04/24 10:19:36;;;;;;;4.23;3.93;;;20.40;90.10;;;;;;5042763;28;20217;-68
2021/04/24 10:22:06;;;;;;;7.20;4.80;;;20.20;87.90;;;;;;5040747;28;20284;-69
2021/04/24 10:24:37;;;;;;;5.80;4.60;;;19.60;89.50;;;;;;5032083;28;20315;-69
2021/04/24 10:27:06;;;;;;;5.00;4.33;;;19.00;90.80;;;;;;5024292;28;20202;-68
2021/04/24 10:29:34;;;;;;;7.07;4.40;;;19.50;90.70;;;;;;5033047;28;20265;-69
2021/04/24 10:32:02;;;;;;;6.07;4.80;;;19.40;90.50;;;;;;5034070;28;20197;-67
2021/04/24 10:34:29;;;;;;;6.07;4.80;;;20.00;90.80;;;;;;5042586;28;20256;-69
2021/04/24 10:36:56;;;;;;;7.03;4.53;;;20.60;88.90;;;;;;5043107;28;20346;-68
2021/04/24 10:39:27;;;;;;;5.23;4.70;;;20.30;87.90;;;;;;5034950;28;20753;-67
2021/04/24 10:42:13;;;;;;;6.50;4.60;;;19.80;89.10;;;;;;5033576;28;20184;-67
2021/04/24 10:44:56;;;;;;;7.00;5.53;;;20.10;89.50;;;;;;5043341;28;20205;-69
2021/04/24 10:47:44;;;;;;;8.60;5.80;;;18.90;89.90;;;;;;5040037;28;20440;-69
2021/04/24 10:50:14;;;;;;;8.47;5.80;;;17.60;90.60;;;;;;5032256;28;20177;-69
2021/04/24 10:52:43;;;;;;;5.10;4.70;;;17.90;91.00;;;;;;5043179;28;20308;-69
2021/04/24 10:55:20;;;;;;;6.33;5.60;;;18.50;91.10;;;;;;5033190;28;20219;-69
2021/04/24 10:57:53;;;;;;;7.67;5.03;;;19.40;91.70;;;;;;5028792;28;20256;-69
2021/04/24 11:00:22;;;;;;;7.73;5.13;;;19.20;89.90;;;;;;5036681;28;20289;-68
2021/04/24 11:02:51;;;;;;;5.83;5.00;;;18.40;90.40;;;;;;5036227;28;20177;-68
2021/04/24 11:05:27;;;;;;;9.07;5.80;;;18.60;92.50;;;;;;5041678;28;20185;-68
2021/04/24 11:08:26;;;;;;;9.47;5.50;;;17.40;91.40;;;;;;5036417;28;20208;-69
2021/04/24 11:11:03;;;;;;;6.23;5.57;;;17.80;93.70;;;;;;5041080;28;20189;-68
2021/04/24 11:13:36;;;;;;;7.60;6.03;;;18.80;93.80;;;;;;5059496;28;20363;-68
2021/04/24 11:16:05;;;;;;;10.77;6.37;;;19.10;91.20;;;;;;5041801;28;20204;-69
2021/04/24 11:18:34;;;;;;;7.07;5.93;;;18.60;90.90;;;;;;5045558;28;20201;-68
2021/04/24 11:21:04;;;;;;;9.03;5.67;;;18.70;91.20;;;;;;5042707;28;20197;-68
2021/04/24 11:23:41;;;;;;;10.70;5.57;;;19.10;93.80;;;;;;5041976;28;20543;-68
2021/04/24 11:26:12;;;;;;;8.10;5.33;;;19.20;90.70;;;;;;5045389;28;20181;-69
2021/04/24 11:29:05;;;;;;;7.93;5.60;;;18.70;90.20;;;;;;5031726;28;20176;-68
2021/04/24 11:31:55;;;;;;;9.57;6.00;;;17.70;91.00;;;;;;5042297;28;20260;-68
2021/04/24 11:34:38;;;;;;;7.70;5.63;;;17.60;91.30;;;;;;5048992;28;20209;-68
2021/04/24 11:37:31;;;;;;;7.40;5.50;;;17.90;92.00;;;;;;5042621;28;20177;-69
2021/04/24 11:40:22;;;;;;;9.13;5.83;;;18.20;92.80;;;;;;5042235;28;20232;-69
2021/04/24 11:42:56;;;;;;;8.13;6.10;;;18.00;91.00;;;;;;5042357;28;20180;-68
2021/04/24 11:45:57;;;;;;;6.87;5.60;;;17.40;91.20;;;;;;5041924;28;20202;-68
2021/04/24 11:49:01;;;;;;;6.87;6.07;;;17.70;93.40;;;;;;5039146;28;20447;-68
2021/04/24 11:51:33;;;;;;;9.73;5.97;;;18.00;92.50;;;;;;5025058;28;20197;-68
2021/04/24 11:54:07;;;;;;;10.13;5.90;;;18.00;91.60;;;;;;5042119;28;20199;-69
2021/04/24 11:56:35;;;;;;;10.60;6.33;;;17.80;91.60;;;;;;5043593;28;20401;-69
2021/04/24 11:59:05;;;;;;;7.27;5.80;;;17.80;91.80;;;;;;5041568;28;20241;-68
2021/04/24 12:01:32;;;;;;;9.40;7.03;;;17.40;92.00;;;;;;5037726;28;20416;-68
2021/04/24 12:04:00;;;;;;;10.00;6.57;;;17.30;91.70;;;;;;5037741;28;20181;-68
2021/04/24 12:06:40;;;;;;;9.77;6.70;;;17.20;92.80;;;;;;5041188;28;20228;-68
2021/04/24 12:09:14;;;;;;;9.43;6.87;;;17.60;93.00;;;;;;5037033;28;20188;-69
2021/04/24 12:11:54;;;;;;;7.53;6.17;;;17.70;92.40;;;;;;5042812;28;20186;-68
2021/04/24 12:14:24;;;;;;;10.40;6.90;;;17.70;91.90;;;;;;5036147;28;20185;-68
2021/04/24 12:16:52;;;;;;;10.50;6.67;;;17.80;93.20;;;;;;5051235;28;20256;-68
2021/04/24 12:19:32;;;;;;;9.83;7.13;;;18.30;92.70;;;;;;5053107;28;20315;-68
2021/04/24 12:22:13;;;;;;;9.90;7.07;;;17.90;91.80;;;;;;5034752;28;20224;-69
2021/04/24 12:24:59;;;;;;;8.43;6.80;;;17.90;92.30;;;;;;5035620;28;20418;-67
2021/04/24 12:27:41;;;;;;;9.57;6.40;;;18.00;92.20;;;;;;5041124;28;20193;-69
2021/04/24 12:30:13;;;;;;;8.77;6.30;;;17.70;93.60;;;;;;5045166;28;20225;-69
2021/04/24 12:32:42;;;;;;;7.47;6.20;;;17.90;94.00;;;;;;5043054;28;20236;-68
2021/04/24 12:35:14;;;;;;;9.53;6.43;;;17.70;95.40;;;;;;5025457;28;20192;-69
2021/04/24 12:37:43;;;;;;;9.57;6.73;;;18.00;94.30;;;;;;5038522;28;20218;-68
2021/04/24 12:40:15;;;;;;;8.90;6.53;;;18.40;95.00;;;;;;5030491;28;20217;-69
2021/04/24 12:42:45;;;;;;;10.70;6.60;;;17.50;92.50;;;;;;5040439;28;20327;-69
2021/04/24 12:45:19;;;;;;;9.00;6.97;;;17.50;92.70;;;;;;5029272;28;20303;-69
2021/04/24 12:47:47;;;;;;;8.20;6.90;;;16.60;92.70;;;;;;5035668;28;20213;-69
2021/04/24 12:50:27;;;;;;;10.83;6.93;;;16.60;93.00;;;;;;5039394;28;20303;-69
2021/04/24 12:52:57;;;;;;;8.93;7.23;;;16.80;97.10;;;;;;5036405;28;20178;-69
2021/04/24 12:55:29;;;;;;;15.27;7.37;;;17.20;92.80;;;;;;5030170;28;20310;-67
2021/04/24 12:58:00;;;;;;;8.63;6.20;;;16.30;93.70;;;;;;5030544;28;20186;-68
2021/04/24 13:00:32;;;;;;;10.87;6.10;;;16.80;93.50;;;;;;5039372;28;20209;-68